sensor_id;sensor_type;location;lat;lon;timestamp;P1;durP1;ratioP1;P2;durP2;ratioP2
55465;SDS011;41329;41.594;23.810;2023-07-31T00:00:00;4.72;;;4.53;;
55465;SDS011;41329;41.594;23.810;2023-07-31T00:02:25;5.40;;;5.05;;
55465;SDS011;41329;41.594;23.810;2023-07-31T00:04:50;5.57;;;5.25;;
55465;SDS011;41329;41.594;23.810;2023-07-31T00:07:16;4.95;;;4.65;;
55465;SDS011;41329;41.594;23.810;2023-07-31T00:09:41;6.18;;;5.70;;
55465;SDS011;41329;41.594;23.810;2023-07-31T00:12:07;5.78;;;5.30;;
55465;SDS011;41329;41.594;23.810;2023-07-31T00:14:33;5.53;;;5.13;;
55465;SDS011;41329;41.594;23.810;2023-07-31T00:16:58;4.70;;;4.30;;
55465;SDS011;41329;41.594;23.810;2023-07-31T00:19:23;4.85;;;4.40;;
55465;SDS011;41329;41.594;23.810;2023-07-31T00:21:49;5.68;;;5.00;;
55465;SDS011;41329;41.594;23.810;2023-07-31T00:24:14;5.43;;;5.03;;
55465;SDS011;41329;41.594;23.810;2023-07-31T00:26:39;5.30;;;4.90;;
55465;SDS011;41329;41.594;23.810;2023-07-31T00:29:05;5.00;;;4.70;;
55465;SDS011;41329;41.594;23.810;2023-07-31T00:31:30;5.03;;;4.63;;
55465;SDS011;41329;41.594;23.810;2023-07-31T00:33:55;5.28;;;4.97;;
55465;SDS011;41329;41.594;23.810;2023-07-31T00:36:21;5.00;;;4.78;;
55465;SDS011;41329;41.594;23.810;2023-07-31T00:38:46;4.50;;;4.25;;
55465;SDS011;41329;41.594;23.810;2023-07-31T00:41:11;4.40;;;4.20;;
55465;SDS011;41329;41.594;23.810;2023-07-31T00:43:37;5.00;;;4.60;;
55465;SDS011;41329;41.594;23.810;2023-07-31T00:46:02;5.15;;;4.80;;
55465;SDS011;41329;41.594;23.810;2023-07-31T00:48:28;5.18;;;4.78;;
55465;SDS011;41329;41.594;23.810;2023-07-31T00:50:53;5.50;;;5.18;;
55465;SDS011;41329;41.594;23.810;2023-07-31T00:53:19;5.47;;;4.80;;
55465;SDS011;41329;41.594;23.810;2023-07-31T00:55:45;5.88;;;5.40;;
55465;SDS011;41329;41.594;23.810;2023-07-31T00:58:10;5.78;;;5.35;;
55465;SDS011;41329;41.594;23.810;2023-07-31T01:00:36;5.93;;;5.63;;
55465;SDS011;41329;41.594;23.810;2023-07-31T01:03:01;5.72;;;5.43;;
55465;SDS011;41329;41.594;23.810;2023-07-31T01:06:14;5.97;;;5.68;;
55465;SDS011;41329;41.594;23.810;2023-07-31T01:08:39;6.22;;;5.88;;
55465;SDS011;41329;41.594;23.810;2023-07-31T01:11:17;6.90;;;6.40;;
55465;SDS011;41329;41.594;23.810;2023-07-31T01:13:50;6.85;;;6.45;;
55465;SDS011;41329;41.594;23.810;2023-07-31T01:16:16;5.80;;;5.50;;
55465;SDS011;41329;41.594;23.810;2023-07-31T01:18:42;6.30;;;5.90;;
55465;SDS011;41329;41.594;23.810;2023-07-31T01:24:20;5.95;;;5.65;;
55465;SDS011;41329;41.594;23.810;2023-07-31T01:26:49;5.55;;;5.32;;
55465;SDS011;41329;41.594;23.810;2023-07-31T01:29:47;5.70;;;5.40;;
55465;SDS011;41329;41.594;23.810;2023-07-31T01:32:14;6.15;;;5.75;;
55465;SDS011;41329;41.594;23.810;2023-07-31T01:34:41;6.18;;;5.60;;
55465;SDS011;41329;41.594;23.810;2023-07-31T01:37:06;6.25;;;5.75;;
55465;SDS011;41329;41.594;23.810;2023-07-31T01:39:32;5.20;;;4.90;;
55465;SDS011;41329;41.594;23.810;2023-07-31T01:41:57;6.47;;;5.97;;
55465;SDS011;41329;41.594;23.810;2023-07-31T01:44:23;5.93;;;5.60;;
55465;SDS011;41329;41.594;23.810;2023-07-31T01:46:48;6.00;;;5.70;;
55465;SDS011;41329;41.594;23.810;2023-07-31T01:49:13;6.00;;;5.70;;
55465;SDS011;41329;41.594;23.810;2023-07-31T01:51:39;6.65;;;6.25;;
55465;SDS011;41329;41.594;23.810;2023-07-31T01:54:04;6.25;;;5.88;;
55465;SDS011;41329;41.594;23.810;2023-07-31T01:56:30;6.40;;;6.05;;
55465;SDS011;41329;41.594;23.810;2023-07-31T01:58:56;6.68;;;6.35;;
55465;SDS011;41329;41.594;23.810;2023-07-31T02:01:21;6.20;;;5.90;;
55465;SDS011;41329;41.594;23.810;2023-07-31T02:03:46;5.95;;;5.55;;
55465;SDS011;41329;41.594;23.810;2023-07-31T02:06:12;6.05;;;5.75;;
55465;SDS011;41329;41.594;23.810;2023-07-31T02:08:37;6.03;;;5.70;;
55465;SDS011;41329;41.594;23.810;2023-07-31T02:11:03;7.65;;;6.95;;
55465;SDS011;41329;41.594;23.810;2023-07-31T02:13:28;6.05;;;5.72;;
55465;SDS011;41329;41.594;23.810;2023-07-31T02:15:54;6.35;;;6.05;;
55465;SDS011;41329;41.594;23.810;2023-07-31T02:18:19;7.18;;;6.75;;
55465;SDS011;41329;41.594;23.810;2023-07-31T02:20:51;5.97;;;5.68;;
55465;SDS011;41329;41.594;23.810;2023-07-31T02:23:20;6.40;;;6.00;;
55465;SDS011;41329;41.594;23.810;2023-07-31T02:25:46;7.18;;;6.78;;
55465;SDS011;41329;41.594;23.810;2023-07-31T02:28:11;6.00;;;5.70;;
55465;SDS011;41329;41.594;23.810;2023-07-31T02:30:37;6.85;;;6.30;;
55465;SDS011;41329;41.594;23.810;2023-07-31T02:33:03;8.88;;;8.38;;
55465;SDS011;41329;41.594;23.810;2023-07-31T02:35:29;7.72;;;7.15;;
55465;SDS011;41329;41.594;23.810;2023-07-31T02:37:55;6.03;;;5.72;;
55465;SDS011;41329;41.594;23.810;2023-07-31T02:40:20;6.15;;;5.85;;
55465;SDS011;41329;41.594;23.810;2023-07-31T02:42:46;7.68;;;7.18;;
55465;SDS011;41329;41.594;23.810;2023-07-31T02:45:11;9.80;;;9.20;;
55465;SDS011;41329;41.594;23.810;2023-07-31T02:47:37;8.77;;;8.15;;
55465;SDS011;41329;41.594;23.810;2023-07-31T02:50:02;7.28;;;6.88;;
55465;SDS011;41329;41.594;23.810;2023-07-31T02:52:28;10.05;;;9.55;;
55465;SDS011;41329;41.594;23.810;2023-07-31T02:54:53;13.25;;;12.43;;
55465;SDS011;41329;41.594;23.810;2023-07-31T02:57:19;8.70;;;8.27;;
55465;SDS011;41329;41.594;23.810;2023-07-31T02:59:44;7.60;;;7.10;;
55465;SDS011;41329;41.594;23.810;2023-07-31T03:02:10;7.78;;;7.22;;
55465;SDS011;41329;41.594;23.810;2023-07-31T03:04:36;7.82;;;7.30;;
55465;SDS011;41329;41.594;23.810;2023-07-31T03:07:01;8.15;;;7.72;;
55465;SDS011;41329;41.594;23.810;2023-07-31T03:09:27;7.10;;;6.70;;
55465;SDS011;41329;41.594;23.810;2023-07-31T03:11:52;7.10;;;6.80;;
55465;SDS011;41329;41.594;23.810;2023-07-31T03:14:18;7.25;;;6.90;;
55465;SDS011;41329;41.594;23.810;2023-07-31T03:16:43;7.30;;;6.80;;
55465;SDS011;41329;41.594;23.810;2023-07-31T03:19:08;6.80;;;6.40;;
55465;SDS011;41329;41.594;23.810;2023-07-31T03:21:34;7.45;;;7.00;;
55465;SDS011;41329;41.594;23.810;2023-07-31T03:23:59;7.50;;;7.10;;
55465;SDS011;41329;41.594;23.810;2023-07-31T03:26:24;8.00;;;7.60;;
55465;SDS011;41329;41.594;23.810;2023-07-31T03:28:50;7.97;;;7.38;;
55465;SDS011;41329;41.594;23.810;2023-07-31T03:31:15;7.63;;;7.22;;
55465;SDS011;41329;41.594;23.810;2023-07-31T03:33:41;8.20;;;7.68;;
55465;SDS011;41329;41.594;23.810;2023-07-31T03:36:06;7.97;;;7.38;;
55465;SDS011;41329;41.594;23.810;2023-07-31T03:38:33;7.85;;;7.45;;
55465;SDS011;41329;41.594;23.810;2023-07-31T03:40:59;7.43;;;7.07;;
55465;SDS011;41329;41.594;23.810;2023-07-31T03:43:24;7.53;;;7.20;;
55465;SDS011;41329;41.594;23.810;2023-07-31T03:45:50;8.15;;;7.47;;
55465;SDS011;41329;41.594;23.810;2023-07-31T03:48:15;8.02;;;7.43;;
55465;SDS011;41329;41.594;23.810;2023-07-31T03:50:41;8.07;;;7.68;;
55465;SDS011;41329;41.594;23.810;2023-07-31T03:53:07;9.23;;;8.63;;
55465;SDS011;41329;41.594;23.810;2023-07-31T03:55:32;15.57;;;14.23;;
55465;SDS011;41329;41.594;23.810;2023-07-31T03:57:57;12.82;;;11.88;;
55465;SDS011;41329;41.594;23.810;2023-07-31T04:00:23;8.30;;;7.80;;
55465;SDS011;41329;41.594;23.810;2023-07-31T04:02:48;8.00;;;7.50;;
55465;SDS011;41329;41.594;23.810;2023-07-31T04:05:14;7.32;;;6.82;;
55465;SDS011;41329;41.594;23.810;2023-07-31T04:07:39;7.50;;;7.10;;
55465;SDS011;41329;41.594;23.810;2023-07-31T04:10:04;7.22;;;6.88;;
55465;SDS011;41329;41.594;23.810;2023-07-31T04:12:30;7.55;;;7.15;;
55465;SDS011;41329;41.594;23.810;2023-07-31T04:14:55;7.82;;;7.28;;
55465;SDS011;41329;41.594;23.810;2023-07-31T04:17:21;7.60;;;7.00;;
55465;SDS011;41329;41.594;23.810;2023-07-31T04:19:46;7.20;;;6.80;;
55465;SDS011;41329;41.594;23.810;2023-07-31T04:22:11;7.38;;;7.07;;
55465;SDS011;41329;41.594;23.810;2023-07-31T04:24:37;7.78;;;7.38;;
55465;SDS011;41329;41.594;23.810;2023-07-31T04:27:02;7.35;;;7.00;;
55465;SDS011;41329;41.594;23.810;2023-07-31T04:29:28;7.50;;;7.03;;
55465;SDS011;41329;41.594;23.810;2023-07-31T04:31:53;6.65;;;6.25;;
55465;SDS011;41329;41.594;23.810;2023-07-31T04:34:18;6.97;;;6.55;;
55465;SDS011;41329;41.594;23.810;2023-07-31T04:36:44;6.85;;;6.45;;
55465;SDS011;41329;41.594;23.810;2023-07-31T04:39:09;7.00;;;6.70;;
55465;SDS011;41329;41.594;23.810;2023-07-31T04:41:35;7.05;;;6.75;;
55465;SDS011;41329;41.594;23.810;2023-07-31T04:44:00;7.13;;;6.82;;
55465;SDS011;41329;41.594;23.810;2023-07-31T04:46:26;21.60;;;19.40;;
55465;SDS011;41329;41.594;23.810;2023-07-31T04:48:52;41.88;;;31.65;;
55465;SDS011;41329;41.594;23.810;2023-07-31T04:51:17;83.07;;;51.67;;
55465;SDS011;41329;41.594;23.810;2023-07-31T04:53:43;94.80;;;58.83;;
55465;SDS011;41329;41.594;23.810;2023-07-31T04:56:08;80.35;;;53.95;;
55465;SDS011;41329;41.594;23.810;2023-07-31T04:58:33;47.70;;;34.33;;
55465;SDS011;41329;41.594;23.810;2023-07-31T05:00:59;22.98;;;20.92;;
55465;SDS011;41329;41.594;23.810;2023-07-31T05:03:24;14.93;;;13.68;;
55465;SDS011;41329;41.594;23.810;2023-07-31T05:05:50;10.32;;;9.50;;
55465;SDS011;41329;41.594;23.810;2023-07-31T05:08:15;10.15;;;9.55;;
55465;SDS011;41329;41.594;23.810;2023-07-31T05:10:42;13.05;;;12.35;;
55465;SDS011;41329;41.594;23.810;2023-07-31T05:13:08;9.27;;;8.73;;
55465;SDS011;41329;41.594;23.810;2023-07-31T05:15:33;8.30;;;7.82;;
55465;SDS011;41329;41.594;23.810;2023-07-31T05:17:59;8.25;;;7.75;;
55465;SDS011;41329;41.594;23.810;2023-07-31T05:20:24;8.55;;;7.82;;
55465;SDS011;41329;41.594;23.810;2023-07-31T05:22:50;7.03;;;6.57;;
55465;SDS011;41329;41.594;23.810;2023-07-31T05:25:16;6.95;;;6.55;;
55465;SDS011;41329;41.594;23.810;2023-07-31T05:27:41;7.20;;;6.80;;
55465;SDS011;41329;41.594;23.810;2023-07-31T05:30:07;6.97;;;6.68;;
55465;SDS011;41329;41.594;23.810;2023-07-31T05:32:32;7.18;;;6.78;;
55465;SDS011;41329;41.594;23.810;2023-07-31T05:34:58;7.00;;;6.70;;
55465;SDS011;41329;41.594;23.810;2023-07-31T05:37:23;7.78;;;7.25;;
55465;SDS011;41329;41.594;23.810;2023-07-31T05:39:49;7.43;;;7.05;;
55465;SDS011;41329;41.594;23.810;2023-07-31T05:42:14;8.07;;;7.45;;
55465;SDS011;41329;41.594;23.810;2023-07-31T05:44:40;8.70;;;8.07;;
55465;SDS011;41329;41.594;23.810;2023-07-31T05:47:05;8.68;;;8.27;;
55465;SDS011;41329;41.594;23.810;2023-07-31T05:49:31;8.73;;;8.23;;
55465;SDS011;41329;41.594;23.810;2023-07-31T05:51:56;9.00;;;8.50;;
55465;SDS011;41329;41.594;23.810;2023-07-31T05:54:21;9.68;;;9.05;;
55465;SDS011;41329;41.594;23.810;2023-07-31T05:56:47;8.07;;;7.68;;
55465;SDS011;41329;41.594;23.810;2023-07-31T05:59:12;8.52;;;7.93;;
55465;SDS011;41329;41.594;23.810;2023-07-31T06:01:38;8.30;;;7.80;;
55465;SDS011;41329;41.594;23.810;2023-07-31T06:04:04;10.68;;;9.75;;
55465;SDS011;41329;41.594;23.810;2023-07-31T06:06:30;11.13;;;10.48;;
55465;SDS011;41329;41.594;23.810;2023-07-31T06:08:55;9.82;;;8.68;;
55465;SDS011;41329;41.594;23.810;2023-07-31T06:11:20;9.00;;;8.60;;
55465;SDS011;41329;41.594;23.810;2023-07-31T06:13:46;8.98;;;8.48;;
55465;SDS011;41329;41.594;23.810;2023-07-31T06:16:13;8.73;;;8.13;;
55465;SDS011;41329;41.594;23.810;2023-07-31T06:18:38;10.38;;;9.77;;
55465;SDS011;41329;41.594;23.810;2023-07-31T06:21:04;10.77;;;10.18;;
55465;SDS011;41329;41.594;23.810;2023-07-31T06:23:29;9.85;;;9.10;;
55465;SDS011;41329;41.594;23.810;2023-07-31T06:25:55;10.27;;;9.68;;
55465;SDS011;41329;41.594;23.810;2023-07-31T06:28:20;10.88;;;10.30;;
55465;SDS011;41329;41.594;23.810;2023-07-31T06:30:45;9.52;;;9.02;;
55465;SDS011;41329;41.594;23.810;2023-07-31T06:33:11;9.00;;;8.40;;
55465;SDS011;41329;41.594;23.810;2023-07-31T06:35:36;8.20;;;7.70;;
55465;SDS011;41329;41.594;23.810;2023-07-31T06:38:01;7.70;;;7.25;;
55465;SDS011;41329;41.594;23.810;2023-07-31T06:40:27;7.60;;;7.18;;
55465;SDS011;41329;41.594;23.810;2023-07-31T06:42:53;7.18;;;6.78;;
55465;SDS011;41329;41.594;23.810;2023-07-31T06:45:19;6.93;;;6.57;;
55465;SDS011;41329;41.594;23.810;2023-07-31T06:47:44;8.02;;;7.53;;
55465;SDS011;41329;41.594;23.810;2023-07-31T06:50:09;8.23;;;7.72;;
55465;SDS011;41329;41.594;23.810;2023-07-31T06:52:35;9.02;;;8.43;;
55465;SDS011;41329;41.594;23.810;2023-07-31T06:55:14;8.43;;;7.93;;
55465;SDS011;41329;41.594;23.810;2023-07-31T06:57:43;11.27;;;10.68;;
55465;SDS011;41329;41.594;23.810;2023-07-31T07:00:09;64.43;;;50.67;;
55465;SDS011;41329;41.594;23.810;2023-07-31T07:02:35;9.25;;;8.25;;
55465;SDS011;41329;41.594;23.810;2023-07-31T07:05:00;21.73;;;20.38;;
55465;SDS011;41329;41.594;23.810;2023-07-31T07:07:26;9.23;;;8.38;;
55465;SDS011;41329;41.594;23.810;2023-07-31T07:09:51;31.02;;;29.30;;
55465;SDS011;41329;41.594;23.810;2023-07-31T07:12:16;8.10;;;7.60;;
55465;SDS011;41329;41.594;23.810;2023-07-31T07:14:42;10.65;;;10.10;;
55465;SDS011;41329;41.594;23.810;2023-07-31T07:17:07;8.98;;;8.48;;
55465;SDS011;41329;41.594;23.810;2023-07-31T07:19:33;7.35;;;6.82;;
55465;SDS011;41329;41.594;23.810;2023-07-31T07:21:58;7.88;;;7.38;;
55465;SDS011;41329;41.594;23.810;2023-07-31T07:24:26;6.72;;;6.43;;
55465;SDS011;41329;41.594;23.810;2023-07-31T07:26:52;6.00;;;5.70;;
55465;SDS011;41329;41.594;23.810;2023-07-31T07:29:17;5.32;;;5.13;;
55465;SDS011;41329;41.594;23.810;2023-07-31T07:31:42;6.32;;;5.90;;
55465;SDS011;41329;41.594;23.810;2023-07-31T07:34:08;6.55;;;6.25;;
55465;SDS011;41329;41.594;23.810;2023-07-31T07:36:33;5.72;;;5.20;;
55465;SDS011;41329;41.594;23.810;2023-07-31T07:38:59;5.10;;;4.82;;
55465;SDS011;41329;41.594;23.810;2023-07-31T07:41:24;5.03;;;4.63;;
55465;SDS011;41329;41.594;23.810;2023-07-31T07:43:49;3.67;;;3.42;;
55465;SDS011;41329;41.594;23.810;2023-07-31T07:46:16;3.17;;;2.97;;
55465;SDS011;41329;41.594;23.810;2023-07-31T07:48:41;3.70;;;3.50;;
55465;SDS011;41329;41.594;23.810;2023-07-31T07:51:07;3.63;;;3.40;;
55465;SDS011;41329;41.594;23.810;2023-07-31T07:53:32;3.95;;;3.75;;
55465;SDS011;41329;41.594;23.810;2023-07-31T07:55:58;3.60;;;3.40;;
55465;SDS011;41329;41.594;23.810;2023-07-31T07:58:23;3.58;;;3.38;;
55465;SDS011;41329;41.594;23.810;2023-07-31T08:00:50;4.25;;;3.83;;
55465;SDS011;41329;41.594;23.810;2023-07-31T08:03:16;5.95;;;4.60;;
55465;SDS011;41329;41.594;23.810;2023-07-31T08:05:42;4.32;;;3.97;;
55465;SDS011;41329;41.594;23.810;2023-07-31T08:08:07;3.38;;;3.08;;
55465;SDS011;41329;41.594;23.810;2023-07-31T08:10:33;3.25;;;3.10;;
55465;SDS011;41329;41.594;23.810;2023-07-31T08:12:58;3.00;;;2.90;;
55465;SDS011;41329;41.594;23.810;2023-07-31T08:15:24;2.92;;;2.83;;
55465;SDS011;41329;41.594;23.810;2023-07-31T08:17:49;2.97;;;2.88;;
55465;SDS011;41329;41.594;23.810;2023-07-31T08:20:15;2.35;;;2.25;;
55465;SDS011;41329;41.594;23.810;2023-07-31T08:22:40;4.95;;;3.00;;
55465;SDS011;41329;41.594;23.810;2023-07-31T08:25:06;2.97;;;2.78;;
55465;SDS011;41329;41.594;23.810;2023-07-31T08:27:31;2.95;;;2.63;;
55465;SDS011;41329;41.594;23.810;2023-07-31T08:29:57;2.65;;;2.40;;
55465;SDS011;41329;41.594;23.810;2023-07-31T08:32:22;2.50;;;2.30;;
55465;SDS011;41329;41.594;23.810;2023-07-31T08:34:48;2.75;;;2.65;;
55465;SDS011;41329;41.594;23.810;2023-07-31T08:37:14;5.10;;;4.65;;
55465;SDS011;41329;41.594;23.810;2023-07-31T08:39:39;3.47;;;3.28;;
55465;SDS011;41329;41.594;23.810;2023-07-31T08:42:07;2.95;;;2.78;;
55465;SDS011;41329;41.594;23.810;2023-07-31T08:44:33;3.28;;;3.17;;
55465;SDS011;41329;41.594;23.810;2023-07-31T08:46:59;3.00;;;2.90;;
55465;SDS011;41329;41.594;23.810;2023-07-31T08:49:25;3.58;;;3.38;;
55465;SDS011;41329;41.594;23.810;2023-07-31T08:51:52;3.28;;;3.08;;
55465;SDS011;41329;41.594;23.810;2023-07-31T08:54:19;3.15;;;2.95;;
55465;SDS011;41329;41.594;23.810;2023-07-31T08:56:45;3.50;;;3.30;;
55465;SDS011;41329;41.594;23.810;2023-07-31T08:59:11;3.60;;;3.40;;
55465;SDS011;41329;41.594;23.810;2023-07-31T09:01:41;3.50;;;3.30;;
55465;SDS011;41329;41.594;23.810;2023-07-31T09:04:09;3.10;;;2.90;;
55465;SDS011;41329;41.594;23.810;2023-07-31T09:06:35;3.67;;;3.47;;
55465;SDS011;41329;41.594;23.810;2023-07-31T09:09:02;3.78;;;3.55;;
55465;SDS011;41329;41.594;23.810;2023-07-31T09:11:28;3.53;;;3.33;;
55465;SDS011;41329;41.594;23.810;2023-07-31T09:13:54;3.70;;;3.50;;
55465;SDS011;41329;41.594;23.810;2023-07-31T09:16:28;3.80;;;3.60;;
55465;SDS011;41329;41.594;23.810;2023-07-31T09:18:57;3.35;;;3.15;;
55465;SDS011;41329;41.594;23.810;2023-07-31T09:21:23;3.35;;;3.20;;
55465;SDS011;41329;41.594;23.810;2023-07-31T09:23:50;4.30;;;4.10;;
55465;SDS011;41329;41.594;23.810;2023-07-31T09:26:32;4.53;;;4.22;;
55465;SDS011;41329;41.594;23.810;2023-07-31T09:28:59;4.03;;;3.83;;
55465;SDS011;41329;41.594;23.810;2023-07-31T09:31:38;4.45;;;4.25;;
55465;SDS011;41329;41.594;23.810;2023-07-31T09:34:05;3.40;;;3.30;;
55465;SDS011;41329;41.594;23.810;2023-07-31T09:36:31;4.13;;;3.92;;
55465;SDS011;41329;41.594;23.810;2023-07-31T09:38:58;4.68;;;4.47;;
55465;SDS011;41329;41.594;23.810;2023-07-31T09:41:27;4.50;;;4.30;;
55465;SDS011;41329;41.594;23.810;2023-07-31T09:43:53;5.10;;;4.80;;
55465;SDS011;41329;41.594;23.810;2023-07-31T09:46:20;5.25;;;5.00;;
55465;SDS011;41329;41.594;23.810;2023-07-31T09:48:45;4.53;;;4.32;;
55465;SDS011;41329;41.594;23.810;2023-07-31T09:51:11;4.68;;;4.38;;
55465;SDS011;41329;41.594;23.810;2023-07-31T09:53:37;4.75;;;4.45;;
55465;SDS011;41329;41.594;23.810;2023-07-31T09:56:02;4.57;;;4.38;;
55465;SDS011;41329;41.594;23.810;2023-07-31T09:58:29;4.30;;;4.10;;
55465;SDS011;41329;41.594;23.810;2023-07-31T10:01:00;4.60;;;4.40;;
55465;SDS011;41329;41.594;23.810;2023-07-31T10:03:27;5.10;;;4.90;;
55465;SDS011;41329;41.594;23.810;2023-07-31T10:05:55;5.13;;;4.90;;
55465;SDS011;41329;41.594;23.810;2023-07-31T10:08:23;4.88;;;4.68;;
55465;SDS011;41329;41.594;23.810;2023-07-31T10:10:55;4.65;;;4.45;;
55465;SDS011;41329;41.594;23.810;2023-07-31T10:13:24;4.45;;;4.25;;
55465;SDS011;41329;41.594;23.810;2023-07-31T10:15:50;4.50;;;4.30;;
55465;SDS011;41329;41.594;23.810;2023-07-31T10:18:16;4.68;;;4.47;;
55465;SDS011;41329;41.594;23.810;2023-07-31T10:20:43;4.65;;;4.45;;
55465;SDS011;41329;41.594;23.810;2023-07-31T10:23:09;4.43;;;4.22;;
55465;SDS011;41329;41.594;23.810;2023-07-31T10:25:35;4.55;;;4.35;;
55465;SDS011;41329;41.594;23.810;2023-07-31T10:28:02;5.30;;;5.00;;
55465;SDS011;41329;41.594;23.810;2023-07-31T10:30:28;4.88;;;4.68;;
55465;SDS011;41329;41.594;23.810;2023-07-31T10:32:55;4.72;;;4.50;;
55465;SDS011;41329;41.594;23.810;2023-07-31T10:35:22;5.13;;;4.93;;
55465;SDS011;41329;41.594;23.810;2023-07-31T10:37:48;4.68;;;4.47;;
55465;SDS011;41329;41.594;23.810;2023-07-31T10:40:31;5.25;;;4.97;;
55465;SDS011;41329;41.594;23.810;2023-07-31T10:42:57;5.28;;;4.97;;
55465;SDS011;41329;41.594;23.810;2023-07-31T10:50:31;5.22;;;4.95;;
55465;SDS011;41329;41.594;23.810;2023-07-31T10:52:58;5.00;;;4.80;;
55465;SDS011;41329;41.594;23.810;2023-07-31T10:58:04;5.70;;;5.40;;
55465;SDS011;41329;41.594;23.810;2023-07-31T11:00:36;5.78;;;5.47;;
55465;SDS011;41329;41.594;23.810;2023-07-31T11:03:07;5.63;;;5.32;;
55465;SDS011;41329;41.594;23.810;2023-07-31T11:05:42;5.55;;;5.18;;
55465;SDS011;41329;41.594;23.810;2023-07-31T11:10:42;5.50;;;5.20;;
55465;SDS011;41329;41.594;23.810;2023-07-31T11:13:09;5.82;;;5.32;;
55465;SDS011;41329;41.594;23.810;2023-07-31T11:15:34;6.70;;;6.28;;
55465;SDS011;41329;41.594;23.810;2023-07-31T11:18:00;6.35;;;6.05;;
55465;SDS011;41329;41.594;23.810;2023-07-31T11:20:37;7.18;;;6.85;;
55465;SDS011;41329;41.594;23.810;2023-07-31T11:23:05;6.88;;;6.57;;
55465;SDS011;41329;41.594;23.810;2023-07-31T11:25:33;7.10;;;6.65;;
55465;SDS011;41329;41.594;23.810;2023-07-31T11:28:04;6.68;;;6.38;;
55465;SDS011;41329;41.594;23.810;2023-07-31T11:30:30;7.95;;;7.45;;
55465;SDS011;41329;41.594;23.810;2023-07-31T11:32:56;7.20;;;6.68;;
55465;SDS011;41329;41.594;23.810;2023-07-31T11:35:21;6.60;;;6.30;;
55465;SDS011;41329;41.594;23.810;2023-07-31T11:37:47;5.93;;;5.63;;
55465;SDS011;41329;41.594;23.810;2023-07-31T11:40:14;7.07;;;6.65;;
55465;SDS011;41329;41.594;23.810;2023-07-31T11:42:40;6.18;;;5.85;;
55465;SDS011;41329;41.594;23.810;2023-07-31T11:45:06;6.45;;;6.15;;
55465;SDS011;41329;41.594;23.810;2023-07-31T11:47:33;7.35;;;6.95;;
55465;SDS011;41329;41.594;23.810;2023-07-31T11:50:02;7.25;;;6.90;;
55465;SDS011;41329;41.594;23.810;2023-07-31T11:52:34;7.85;;;7.45;;
55465;SDS011;41329;41.594;23.810;2023-07-31T11:55:04;7.78;;;7.32;;
55465;SDS011;41329;41.594;23.810;2023-07-31T11:57:34;6.97;;;6.68;;
55465;SDS011;41329;41.594;23.810;2023-07-31T12:00:00;6.80;;;6.40;;
55465;SDS011;41329;41.594;23.810;2023-07-31T12:02:26;6.95;;;6.63;;
55465;SDS011;41329;41.594;23.810;2023-07-31T12:04:52;6.07;;;5.75;;
55465;SDS011;41329;41.594;23.810;2023-07-31T12:07:17;6.38;;;6.07;;
55465;SDS011;41329;41.594;23.810;2023-07-31T12:09:55;6.30;;;5.80;;
55465;SDS011;41329;41.594;23.810;2023-07-31T12:12:26;6.38;;;6.07;;
55465;SDS011;41329;41.594;23.810;2023-07-31T12:14:51;6.90;;;6.60;;
55465;SDS011;41329;41.594;23.810;2023-07-31T12:17:17;7.50;;;7.00;;
55465;SDS011;41329;41.594;23.810;2023-07-31T12:19:45;6.97;;;6.55;;
55465;SDS011;41329;41.594;23.810;2023-07-31T12:22:11;7.38;;;7.07;;
55465;SDS011;41329;41.594;23.810;2023-07-31T12:24:39;7.75;;;7.32;;
55465;SDS011;41329;41.594;23.810;2023-07-31T12:27:09;7.32;;;6.90;;
55465;SDS011;41329;41.594;23.810;2023-07-31T12:29:35;7.60;;;7.15;;
55465;SDS011;41329;41.594;23.810;2023-07-31T12:32:01;8.25;;;7.55;;
55465;SDS011;41329;41.594;23.810;2023-07-31T12:34:27;7.38;;;6.97;;
55465;SDS011;41329;41.594;23.810;2023-07-31T12:36:53;8.13;;;7.63;;
55465;SDS011;41329;41.594;23.810;2023-07-31T12:39:18;8.85;;;8.45;;
55465;SDS011;41329;41.594;23.810;2023-07-31T12:41:44;33.65;;;25.05;;
55465;SDS011;41329;41.594;23.810;2023-07-31T12:44:09;15.75;;;11.77;;
55465;SDS011;41329;41.594;23.810;2023-07-31T12:46:35;11.63;;;10.57;;
55465;SDS011;41329;41.594;23.810;2023-07-31T12:49:00;9.85;;;9.25;;
55465;SDS011;41329;41.594;23.810;2023-07-31T12:51:26;9.80;;;9.23;;
55465;SDS011;41329;41.594;23.810;2023-07-31T12:53:51;9.95;;;9.45;;
55465;SDS011;41329;41.594;23.810;2023-07-31T12:56:16;9.77;;;9.18;;
55465;SDS011;41329;41.594;23.810;2023-07-31T12:58:42;9.93;;;9.43;;
55465;SDS011;41329;41.594;23.810;2023-07-31T13:01:08;9.75;;;9.25;;
55465;SDS011;41329;41.594;23.810;2023-07-31T13:30:42;10.70;;;10.20;;
55465;SDS011;41329;41.594;23.810;2023-07-31T13:33:07;9.82;;;9.43;;
55465;SDS011;41329;41.594;23.810;2023-07-31T13:35:32;10.57;;;9.85;;
55465;SDS011;41329;41.594;23.810;2023-07-31T13:37:58;11.50;;;10.90;;
55465;SDS011;41329;41.594;23.810;2023-07-31T13:40:23;11.93;;;11.32;;
55465;SDS011;41329;41.594;23.810;2023-07-31T13:42:49;12.02;;;11.15;;
55465;SDS011;41329;41.594;23.810;2023-07-31T13:45:14;11.80;;;11.15;;
55465;SDS011;41329;41.594;23.810;2023-07-31T13:47:39;12.02;;;11.32;;
55465;SDS011;41329;41.594;23.810;2023-07-31T13:50:05;11.40;;;10.35;;
55465;SDS011;41329;41.594;23.810;2023-07-31T13:52:31;11.40;;;10.60;;
55465;SDS011;41329;41.594;23.810;2023-07-31T13:54:56;11.55;;;10.93;;
55465;SDS011;41329;41.594;23.810;2023-07-31T13:57:21;12.40;;;11.52;;
55465;SDS011;41329;41.594;23.810;2023-07-31T13:59:48;10.95;;;10.35;;
55465;SDS011;41329;41.594;23.810;2023-07-31T14:02:14;11.93;;;11.23;;
55465;SDS011;41329;41.594;23.810;2023-07-31T14:04:40;10.98;;;10.48;;
55465;SDS011;41329;41.594;23.810;2023-07-31T14:07:05;11.27;;;10.57;;
55465;SDS011;41329;41.594;23.810;2023-07-31T14:09:31;10.23;;;9.43;;
55465;SDS011;41329;41.594;23.810;2023-07-31T14:11:56;8.65;;;8.15;;
55465;SDS011;41329;41.594;23.810;2023-07-31T14:14:22;7.43;;;7.13;;
55465;SDS011;41329;41.594;23.810;2023-07-31T14:16:47;8.38;;;7.80;;
55465;SDS011;41329;41.594;23.810;2023-07-31T14:19:12;7.70;;;7.30;;
55465;SDS011;41329;41.594;23.810;2023-07-31T14:21:38;7.82;;;7.32;;
55465;SDS011;41329;41.594;23.810;2023-07-31T14:24:03;6.28;;;5.97;;
55465;SDS011;41329;41.594;23.810;2023-07-31T14:26:29;6.05;;;5.75;;
55465;SDS011;41329;41.594;23.810;2023-07-31T14:28:54;6.20;;;5.90;;
55465;SDS011;41329;41.594;23.810;2023-07-31T14:31:20;7.78;;;7.28;;
55465;SDS011;41329;41.594;23.810;2023-07-31T14:33:45;9.73;;;9.02;;
55465;SDS011;41329;41.594;23.810;2023-07-31T14:36:11;7.80;;;7.40;;
55465;SDS011;41329;41.594;23.810;2023-07-31T14:38:36;7.07;;;6.70;;
55465;SDS011;41329;41.594;23.810;2023-07-31T14:41:02;7.28;;;6.88;;
55465;SDS011;41329;41.594;23.810;2023-07-31T14:43:27;9.18;;;8.23;;
55465;SDS011;41329;41.594;23.810;2023-07-31T14:45:52;7.80;;;7.40;;
55465;SDS011;41329;41.594;23.810;2023-07-31T14:48:20;8.70;;;7.97;;
55465;SDS011;41329;41.594;23.810;2023-07-31T14:50:46;7.75;;;7.10;;
55465;SDS011;41329;41.594;23.810;2023-07-31T14:53:11;7.97;;;7.57;;
55465;SDS011;41329;41.594;23.810;2023-07-31T14:55:37;9.43;;;8.75;;
55465;SDS011;41329;41.594;23.810;2023-07-31T14:58:02;8.77;;;8.18;;
55465;SDS011;41329;41.594;23.810;2023-07-31T15:00:28;9.70;;;8.90;;
55465;SDS011;41329;41.594;23.810;2023-07-31T15:02:53;9.65;;;8.77;;
55465;SDS011;41329;41.594;23.810;2023-07-31T15:05:19;10.43;;;9.63;;